sensor_id;sensor_type;location;lat;lon;timestamp;pressure;altitude;pressure_sealevel;temperature;humidity
31595;BME280;18200;48.726;8.892;2023-07-24T00:02:21;96129.81;;;32.05;36.36
31595;BME280;18200;48.726;8.892;2023-07-24T00:06:22;96156.81;;;32.68;35.38
31595;BME280;18200;48.726;8.892;2023-07-24T00:10:22;96109.78;;;33.00;34.91
31595;BME280;18200;48.726;8.892;2023-07-24T00:14:23;96107.22;;;33.02;34.33
31595;BME280;18200;48.726;8.892;2023-07-24T00:18:23;96130.91;;;32.43;35.83
31595;BME280;18200;48.726;8.892;2023-07-24T00:22:24;96121.28;;;32.50;35.72
31595;BME280;18200;48.726;8.892;2023-07-24T00:26:24;96122.31;;;32.41;34.72
31595;BME280;18200;48.726;8.892;2023-07-24T00:30:25;96111.28;;;32.65;35.18
31595;BME280;18200;48.726;8.892;2023-07-24T00:34:25;96108.06;;;32.09;35.38
31595;BME280;18200;48.726;8.892;2023-07-24T00:38:25;96095.06;;;32.29;35.28
31595;BME280;18200;48.726;8.892;2023-07-24T00:42:26;96103.50;;;31.49;37.49
31595;BME280;18200;48.726;8.892;2023-07-24T00:46:27;96085.13;;;32.03;36.48
31595;BME280;18200;48.726;8.892;2023-07-24T00:50:32;96079.28;;;31.33;37.26
31595;BME280;18200;48.726;8.892;2023-07-24T00:54:34;96071.63;;;31.67;36.91
31595;BME280;18200;48.726;8.892;2023-07-24T00:58:37;96061.69;;;31.82;36.67
31595;BME280;18200;48.726;8.892;2023-07-24T01:02:38;96071.53;;;31.94;36.23
31595;BME280;18200;48.726;8.892;2023-07-24T01:06:39;96060.81;;;32.09;36.02
31595;BME280;18200;48.726;8.892;2023-07-24T01:10:40;96056.44;;;32.25;34.93
31595;BME280;18200;48.726;8.892;2023-07-24T01:14:49;96048.38;;;32.22;35.79
31595;BME280;18200;48.726;8.892;2023-07-24T01:18:53;96046.84;;;32.21;35.36
31595;BME280;18200;48.726;8.892;2023-07-24T01:27:01;96044.50;;;31.89;36.02
31595;BME280;18200;48.726;8.892;2023-07-24T01:31:02;96033.44;;;31.78;36.38
31595;BME280;18200;48.726;8.892;2023-07-24T01:35:02;96036.63;;;31.36;36.55
31595;BME280;18200;48.726;8.892;2023-07-24T01:39:05;96047.97;;;31.44;36.81
31595;BME280;18200;48.726;8.892;2023-07-24T01:43:06;96043.53;;;31.02;36.75
31595;BME280;18200;48.726;8.892;2023-07-24T01:47:07;96043.25;;;31.11;37.05
31595;BME280;18200;48.726;8.892;2023-07-24T01:51:07;96041.13;;;31.50;36.15
31595;BME280;18200;48.726;8.892;2023-07-24T01:55:07;96039.03;;;31.67;36.46
31595;BME280;18200;48.726;8.892;2023-07-24T01:59:09;96053.38;;;30.92;37.30
31595;BME280;18200;48.726;8.892;2023-07-24T02:03:10;96049.22;;;31.48;36.03
31595;BME280;18200;48.726;8.892;2023-07-24T02:07:11;96037.22;;;31.81;36.13
31595;BME280;18200;48.726;8.892;2023-07-24T02:11:11;96018.16;;;32.01;35.69
31595;BME280;18200;48.726;8.892;2023-07-24T02:15:12;96016.56;;;31.65;35.78
31595;BME280;18200;48.726;8.892;2023-07-24T02:19:14;96028.25;;;31.58;36.37
31595;BME280;18200;48.726;8.892;2023-07-24T02:23:14;96018.19;;;31.90;35.67
31595;BME280;18200;48.726;8.892;2023-07-24T02:27:25;96022.34;;;31.73;35.69
31595;BME280;18200;48.726;8.892;2023-07-24T02:31:26;96018.34;;;31.68;35.84
31595;BME280;18200;48.726;8.892;2023-07-24T02:35:26;96004.09;;;31.83;35.68
31595;BME280;18200;48.726;8.892;2023-07-24T02:39:27;96004.81;;;31.89;35.07
31595;BME280;18200;48.726;8.892;2023-07-24T02:43:28;95994.88;;;31.64;35.95
31595;BME280;18200;48.726;8.892;2023-07-24T02:47:28;96000.84;;;31.16;36.17
31595;BME280;18200;48.726;8.892;2023-07-24T02:51:28;96002.28;;;31.39;35.92
31595;BME280;18200;48.726;8.892;2023-07-24T02:55:29;96000.19;;;31.56;35.96
31595;BME280;18200;48.726;8.892;2023-07-24T02:59:29;95981.59;;;31.40;36.08
31595;BME280;18200;48.726;8.892;2023-07-24T03:03:31;95967.63;;;30.83;36.39
31595;BME280;18200;48.726;8.892;2023-07-24T03:07:32;95958.56;;;30.77;37.03
31595;BME280;18200;48.726;8.892;2023-07-24T03:11:32;95955.97;;;31.01;36.72
31595;BME280;18200;48.726;8.892;2023-07-24T03:15:32;95969.06;;;31.17;35.90
31595;BME280;18200;48.726;8.892;2023-07-24T03:19:33;95990.28;;;31.03;35.91
31595;BME280;18200;48.726;8.892;2023-07-24T03:23:33;95994.28;;;31.19;35.75
31595;BME280;18200;48.726;8.892;2023-07-24T03:27:34;95983.94;;;31.19;36.28
31595;BME280;18200;48.726;8.892;2023-07-24T03:31:34;95975.22;;;30.65;36.54
31595;BME280;18200;48.726;8.892;2023-07-24T03:35:35;95967.13;;;30.79;36.35
31595;BME280;18200;48.726;8.892;2023-07-24T03:39:35;95968.63;;;29.91;38.11
31595;BME280;18200;48.726;8.892;2023-07-24T03:43:36;95972.19;;;30.52;36.85
31595;BME280;18200;48.726;8.892;2023-07-24T03:47:36;95973.72;;;30.53;36.82
31595;BME280;18200;48.726;8.892;2023-07-24T03:51:36;95977.16;;;31.04;36.41
31595;BME280;18200;48.726;8.892;2023-07-24T03:55:37;95970.38;;;30.88;36.63
31595;BME280;18200;48.726;8.892;2023-07-24T03:59:37;95987.56;;;30.92;36.37
31595;BME280;18200;48.726;8.892;2023-07-24T04:03:37;95971.13;;;31.00;35.87
31595;BME280;18200;48.726;8.892;2023-07-24T04:07:38;95965.91;;;30.57;36.54
31595;BME280;18200;48.726;8.892;2023-07-24T04:11:38;95962.09;;;30.00;38.02
31595;BME280;18200;48.726;8.892;2023-07-24T04:15:39;95946.47;;;30.57;36.84
31595;BME280;18200;48.726;8.892;2023-07-24T04:19:39;95946.69;;;30.76;36.91
31595;BME280;18200;48.726;8.892;2023-07-24T04:23:40;95940.88;;;30.80;36.53
31595;BME280;18200;48.726;8.892;2023-07-24T04:27:40;95938.91;;;30.52;36.82
31595;BME280;18200;48.726;8.892;2023-07-24T04:31:41;95923.06;;;30.42;37.40
31595;BME280;18200;48.726;8.892;2023-07-24T04:35:41;95927.31;;;30.26;37.55
31595;BME280;18200;48.726;8.892;2023-07-24T04:39:41;95921.75;;;30.65;37.00
31595;BME280;18200;48.726;8.892;2023-07-24T04:43:42;95927.09;;;30.41;37.09
31595;BME280;18200;48.726;8.892;2023-07-24T04:47:42;95923.84;;;30.31;37.30
31595;BME280;18200;48.726;8.892;2023-07-24T04:51:43;95923.31;;;30.38;37.01
31595;BME280;18200;48.726;8.892;2023-07-24T04:55:45;95908.91;;;30.56;36.40
31595;BME280;18200;48.726;8.892;2023-07-24T04:59:46;95910.22;;;30.11;37.01
31595;BME280;18200;48.726;8.892;2023-07-24T05:03:46;95917.25;;;30.45;36.72
31595;BME280;18200;48.726;8.892;2023-07-24T05:07:47;95919.22;;;30.73;35.82
31595;BME280;18200;48.726;8.892;2023-07-24T05:11:47;95910.53;;;31.15;35.04
31595;BME280;18200;48.726;8.892;2023-07-24T05:15:47;95913.66;;;30.84;35.61
31595;BME280;18200;48.726;8.892;2023-07-24T05:19:48;95916.22;;;30.71;36.25
31595;BME280;18200;48.726;8.892;2023-07-24T05:23:48;95926.81;;;31.41;34.67
31595;BME280;18200;48.726;8.892;2023-07-24T05:27:49;95951.16;;;32.10;33.57
31595;BME280;18200;48.726;8.892;2023-07-24T05:31:49;95948.38;;;32.10;33.27
31595;BME280;18200;48.726;8.892;2023-07-24T05:35:49;95960.66;;;31.85;33.86
31595;BME280;18200;48.726;8.892;2023-07-24T05:39:50;95963.50;;;32.45;32.96
31595;BME280;18200;48.726;8.892;2023-07-24T05:43:51;95976.28;;;32.59;32.89
31595;BME280;18200;48.726;8.892;2023-07-24T05:47:51;95968.06;;;32.72;33.17
31595;BME280;18200;48.726;8.892;2023-07-24T05:51:52;95984.00;;;32.42;33.91
31595;BME280;18200;48.726;8.892;2023-07-24T05:55:58;95968.41;;;32.87;33.66
31595;BME280;18200;48.726;8.892;2023-07-24T05:59:59;95962.13;;;31.86;35.30
31595;BME280;18200;48.726;8.892;2023-07-24T06:04:00;95965.78;;;31.13;36.59
31595;BME280;18200;48.726;8.892;2023-07-24T06:08:00;95957.13;;;32.20;34.83
31595;BME280;18200;48.726;8.892;2023-07-24T06:12:01;95963.81;;;32.36;34.63
31595;BME280;18200;48.726;8.892;2023-07-24T06:16:01;95965.59;;;32.03;35.62
31595;BME280;18200;48.726;8.892;2023-07-24T06:20:01;95960.00;;;32.92;34.28
31595;BME280;18200;48.726;8.892;2023-07-24T06:24:02;95951.09;;;32.46;34.91
31595;BME280;18200;48.726;8.892;2023-07-24T06:28:02;95950.47;;;32.88;33.68
31595;BME280;18200;48.726;8.892;2023-07-24T06:32:03;95942.09;;;32.34;35.42
31595;BME280;18200;48.726;8.892;2023-07-24T06:36:04;95933.47;;;32.38;35.02
31595;BME280;18200;48.726;8.892;2023-07-24T06:40:06;95927.72;;;32.84;33.76
31595;BME280;18200;48.726;8.892;2023-07-24T06:44:06;95919.72;;;32.99;33.28
31595;BME280;18200;48.726;8.892;2023-07-24T06:48:07;95906.06;;;33.38;34.06
31595;BME280;18200;48.726;8.892;2023-07-24T06:52:07;95907.16;;;31.79;36.36
31595;BME280;18200;48.726;8.892;2023-07-24T06:56:08;95907.88;;;33.17;33.97
31595;BME280;18200;48.726;8.892;2023-07-24T07:00:09;95908.16;;;33.88;33.14
31595;BME280;18200;48.726;8.892;2023-07-24T07:04:11;95912.34;;;33.95;33.23
31595;BME280;18200;48.726;8.892;2023-07-24T07:08:12;95920.19;;;34.15;32.91
31595;BME280;18200;48.726;8.892;2023-07-24T07:12:12;95926.81;;;34.12;33.66
31595;BME280;18200;48.726;8.892;2023-07-24T07:16:12;95927.44;;;34.36;33.62
31595;BME280;18200;48.726;8.892;2023-07-24T07:20:13;95938.59;;;33.68;33.31
31595;BME280;18200;48.726;8.892;2023-07-24T07:24:13;95946.16;;;33.73;32.27
31595;BME280;18200;48.726;8.892;2023-07-24T07:28:14;95950.25;;;34.22;31.54
31595;BME280;18200;48.726;8.892;2023-07-24T07:32:15;95956.66;;;34.17;30.82
31595;BME280;18200;48.726;8.892;2023-07-24T07:36:16;95963.25;;;34.32;30.03
31595;BME280;18200;48.726;8.892;2023-07-24T07:40:18;95981.25;;;34.63;30.65
31595;BME280;18200;48.726;8.892;2023-07-24T07:44:18;96000.16;;;34.57;30.85
31595;BME280;18200;48.726;8.892;2023-07-24T07:48:18;96004.47;;;34.84;31.00
31595;BME280;18200;48.726;8.892;2023-07-24T07:52:19;96029.41;;;34.82;31.54
31595;BME280;18200;48.726;8.892;2023-07-24T07:56:20;96038.63;;;34.46;31.16
31595;BME280;18200;48.726;8.892;2023-07-24T08:00:21;96046.81;;;34.88;31.05
31595;BME280;18200;48.726;8.892;2023-07-24T08:04:21;96037.56;;;32.48;34.01
31595;BME280;18200;48.726;8.892;2023-07-24T08:08:22;96021.03;;;34.19;32.57
31595;BME280;18200;48.726;8.892;2023-07-24T08:12:22;96011.75;;;33.55;34.07
31595;BME280;18200;48.726;8.892;2023-07-24T08:16:22;95966.47;;;34.05;34.09
31595;BME280;18200;48.726;8.892;2023-07-24T08:20:23;95960.78;;;34.42;33.20
31595;BME280;18200;48.726;8.892;2023-07-24T08:24:23;95929.09;;;34.58;33.23
31595;BME280;18200;48.726;8.892;2023-07-24T08:28:23;95923.28;;;34.69;32.76
31595;BME280;18200;48.726;8.892;2023-07-24T08:32:24;95898.84;;;35.01;33.28
31595;BME280;18200;48.726;8.892;2023-07-24T08:36:24;95892.16;;;35.31;32.61
31595;BME280;18200;48.726;8.892;2023-07-24T08:40:25;95891.84;;;34.56;33.93
31595;BME280;18200;48.726;8.892;2023-07-24T08:44:28;95897.97;;;34.54;34.02
31595;BME280;18200;48.726;8.892;2023-07-24T08:48:36;95883.09;;;34.20;34.61
31595;BME280;18200;48.726;8.892;2023-07-24T08:52:38;95901.50;;;34.10;35.23
31595;BME280;18200;48.726;8.892;2023-07-24T08:56:39;95907.44;;;35.03;33.98
31595;BME280;18200;48.726;8.892;2023-07-24T09:00:47;95909.03;;;35.25;35.00
31595;BME280;18200;48.726;8.892;2023-07-24T09:04:47;95907.75;;;35.26;34.93
31595;BME280;18200;48.726;8.892;2023-07-24T09:08:48;95904.25;;;35.46;34.52
31595;BME280;18200;48.726;8.892;2023-07-24T09:12:49;95897.84;;;35.72;34.25
31595;BME280;18200;48.726;8.892;2023-07-24T09:16:49;95905.47;;;34.59;35.05
31595;BME280;18200;48.726;8.892;2023-07-24T09:20:53;95898.06;;;35.74;33.23
31595;BME280;18200;48.726;8.892;2023-07-24T09:24:55;95896.69;;;35.67;33.97
31595;BME280;18200;48.726;8.892;2023-07-24T09:28:56;95912.16;;;35.22;34.61
31595;BME280;18200;48.726;8.892;2023-07-24T09:32:57;95908.56;;;35.81;32.64
31595;BME280;18200;48.726;8.892;2023-07-24T09:36:57;95906.09;;;35.44;32.76
31595;BME280;18200;48.726;8.892;2023-07-24T09:41:00;95908.25;;;35.38;33.47
31595;BME280;18200;48.726;8.892;2023-07-24T09:45:04;95924.94;;;35.30;33.92
31595;BME280;18200;48.726;8.892;2023-07-24T09:49:05;95960.97;;;34.31;35.17
31595;BME280;18200;48.726;8.892;2023-07-24T09:53:06;95950.22;;;33.90;35.61
31595;BME280;18200;48.726;8.892;2023-07-24T09:57:09;95952.81;;;34.78;34.24
31595;BME280;18200;48.726;8.892;2023-07-24T10:01:11;95964.25;;;34.48;34.39
31595;BME280;18200;48.726;8.892;2023-07-24T10:05:11;95971.13;;;35.57;33.09
31595;BME280;18200;48.726;8.892;2023-07-24T10:09:12;95973.09;;;35.96;32.44
31595;BME280;18200;48.726;8.892;2023-07-24T10:13:13;95974.81;;;35.99;33.05
31595;BME280;18200;48.726;8.892;2023-07-24T10:17:33;95986.31;;;35.82;32.43
31595;BME280;18200;48.726;8.892;2023-07-24T10:21:34;95982.88;;;35.90;32.25
31595;BME280;18200;48.726;8.892;2023-07-24T10:25:37;95978.00;;;35.17;33.69
31595;BME280;18200;48.726;8.892;2023-07-24T10:29:38;95990.25;;;35.27;34.34
31595;BME280;18200;48.726;8.892;2023-07-24T10:33:44;95985.63;;;35.03;34.37
31595;BME280;18200;48.726;8.892;2023-07-24T10:37:45;95979.34;;;34.84;34.49
31595;BME280;18200;48.726;8.892;2023-07-24T10:41:45;96007.75;;;35.01;34.98
31595;BME280;18200;48.726;8.892;2023-07-24T10:45:52;96028.66;;;34.50;35.14
31595;BME280;18200;48.726;8.892;2023-07-24T10:49:52;96035.28;;;34.47;35.94
31595;BME280;18200;48.726;8.892;2023-07-24T10:53:53;96028.66;;;34.50;35.77
31595;BME280;18200;48.726;8.892;2023-07-24T10:57:53;96011.97;;;33.76;36.72
31595;BME280;18200;48.726;8.892;2023-07-24T11:01:54;95964.97;;;33.85;36.24
31595;BME280;18200;48.726;8.892;2023-07-24T11:05:54;95944.91;;;33.87;36.20
31595;BME280;18200;48.726;8.892;2023-07-24T11:09:55;95942.19;;;33.25;37.57
31595;BME280;18200;48.726;8.892;2023-07-24T11:13:55;95932.13;;;33.97;35.99
31595;BME280;18200;48.726;8.892;2023-07-24T11:17:55;95920.19;;;34.15;35.65
31595;BME280;18200;48.726;8.892;2023-07-24T11:21:56;95852.28;;;34.25;35.06
31595;BME280;18200;48.726;8.892;2023-07-24T11:25:58;95867.97;;;34.42;35.99
31595;BME280;18200;48.726;8.892;2023-07-24T11:29:58;95902.47;;;34.70;37.29
31595;BME280;18200;48.726;8.892;2023-07-24T11:33:59;95873.31;;;35.78;34.92
31595;BME280;18200;48.726;8.892;2023-07-24T11:38:01;95853.00;;;36.39;33.35
31595;BME280;18200;48.726;8.892;2023-07-24T11:42:02;95875.59;;;36.00;34.27
31595;BME280;18200;48.726;8.892;2023-07-24T11:46:02;95868.25;;;35.43;34.08
31595;BME280;18200;48.726;8.892;2023-07-24T11:50:04;95888.91;;;33.34;37.75
31595;BME280;18200;48.726;8.892;2023-07-24T11:54:08;95904.72;;;33.63;37.09
31595;BME280;18200;48.726;8.892;2023-07-24T11:58:14;95915.03;;;34.19;35.70
31595;BME280;18200;48.726;8.892;2023-07-24T12:02:15;95906.28;;;34.28;36.03
31595;BME280;18200;48.726;8.892;2023-07-24T12:06:16;95905.47;;;34.14;35.70
31595;BME280;18200;48.726;8.892;2023-07-24T12:10:26;95925.88;;;34.22;36.50
31595;BME280;18200;48.726;8.892;2023-07-24T12:14:27;95901.13;;;35.03;34.46
31595;BME280;18200;48.726;8.892;2023-07-24T12:18:27;95899.16;;;35.24;34.33
31595;BME280;18200;48.726;8.892;2023-07-24T12:22:28;95918.31;;;35.67;33.46
31595;BME280;18200;48.726;8.892;2023-07-24T12:26:28;95918.59;;;35.03;34.23
31595;BME280;18200;48.726;8.892;2023-07-24T12:30:29;95901.03;;;35.55;33.20
31595;BME280;18200;48.726;8.892;2023-07-24T12:34:29;95892.75;;;35.63;33.99
31595;BME280;18200;48.726;8.892;2023-07-24T12:38:29;95902.09;;;35.52;33.96
31595;BME280;18200;48.726;8.892;2023-07-24T12:42:30;95896.31;;;35.84;33.41
31595;BME280;18200;48.726;8.892;2023-07-24T12:46:31;95855.41;;;36.64;32.30
31595;BME280;18200;48.726;8.892;2023-07-24T12:50:31;95857.41;;;36.84;31.98
31595;BME280;18200;48.726;8.892;2023-07-24T12:54:32;95850.59;;;36.23;32.62
31595;BME280;18200;48.726;8.892;2023-07-24T12:58:32;95849.38;;;37.23;31.28
31595;BME280;18200;48.726;8.892;2023-07-24T13:02:32;95857.31;;;37.40;30.90
31595;BME280;18200;48.726;8.892;2023-07-24T13:06:33;95843.25;;;37.98;30.79
31595;BME280;18200;48.726;8.892;2023-07-24T13:10:34;95836.56;;;37.00;31.86
31595;BME280;18200;48.726;8.892;2023-07-24T13:14:34;95832.59;;;36.59;31.08
31595;BME280;18200;48.726;8.892;2023-07-24T13:18:35;95844.72;;;34.65;33.41
31595;BME280;18200;48.726;8.892;2023-07-24T13:22:35;95817.00;;;37.58;29.05
31595;BME280;18200;48.726;8.892;2023-07-24T13:26:35;95812.53;;;37.78;28.34
31595;BME280;18200;48.726;8.892;2023-07-24T13:30:36;95801.81;;;36.59;30.56
31595;BME280;18200;48.726;8.892;2023-07-24T13:34:37;95795.38;;;38.97;26.91
31595;BME280;18200;48.726;8.892;2023-07-24T13:38:37;95797.22;;;38.32;27.39
31595;BME280;18200;48.726;8.892;2023-07-24T13:42:38;95780.28;;;38.85;27.26
31595;BME280;18200;48.726;8.892;2023-07-24T13:46:39;95764.97;;;39.42;25.39
31595;BME280;18200;48.726;8.892;2023-07-24T13:50:39;95765.78;;;37.65;27.88
31595;BME280;18200;48.726;8.892;2023-07-24T13:54:39;95751.09;;;38.65;26.03
31595;BME280;18200;48.726;8.892;2023-07-24T13:58:40;95746.94;;;39.78;24.27
31595;BME280;18200;48.726;8.892;2023-07-24T14:02:40;95744.94;;;39.71;25.74
31595;BME280;18200;48.726;8.892;2023-07-24T14:06:40;95754.13;;;39.71;24.62
31595;BME280;18200;48.726;8.892;2023-07-24T14:10:41;95754.78;;;39.54;24.86
31595;BME280;18200;48.726;8.892;2023-07-24T14:14:43;95768.63;;;38.88;26.41
31595;BME280;18200;48.726;8.892;2023-07-24T14:18:43;95753.38;;;38.59;25.93
31595;BME280;18200;48.726;8.892;2023-07-24T14:22:43;95758.41;;;39.15;25.50
31595;BME280;18200;48.726;8.892;2023-07-24T14:26:44;95769.47;;;39.45;24.57
31595;BME280;18200;48.726;8.892;2023-07-24T14:30:45;95755.59;;;38.68;24.85
31595;BME280;18200;48.726;8.892;2023-07-24T14:34:50;95770.88;;;37.08;27.45
31595;BME280;18200;48.726;8.892;2023-07-24T14:38:51;95760.50;;;37.39;27.42
31595;BME280;18200;48.726;8.892;2023-07-24T14:42:51;95745.44;;;36.99;28.14
31595;BME280;18200;48.726;8.892;2023-07-24T14:46:51;95756.50;;;36.69;27.88
31595;BME280;18200;48.726;8.892;2023-07-24T14:50:52;95720.72;;;37.93;26.89
31595;BME280;18200;48.726;8.892;2023-07-24T14:54:52;95725.69;;;37.27;27.65
31595;BME280;18200;48.726;8.892;2023-07-24T14:58:52;95728.59;;;37.87;27.37
31595;BME280;18200;48.726;8.892;2023-07-24T15:02:53;95716.59;;;37.64;26.37
31595;BME280;18200;48.726;8.892;2023-07-24T15:06:54;95747.81;;;37.68;26.80
31595;BME280;18200;48.726;8.892;2023-07-24T15:10:54;95748.22;;;37.95;26.34
31595;BME280;18200;48.726;8.892;2023-07-24T15:14:54;95747.28;;;36.25;28.86
31595;BME280;18200;48.726;8.892;2023-07-24T15:18:55;95769.03;;;35.91;28.99
31595;BME280;18200;48.726;8.892;2023-07-24T15:22:55;95769.72;;;36.32;28.16
31595;BME280;18200;48.726;8.892;2023-07-24T15:26:55;95776.06;;;37.78;26.50
31595;BME280;18200;48.726;8.892;2023-07-24T15:30:56;95779.34;;;35.21;29.52
31595;BME280;18200;48.726;8.892;2023-07-24T15:34:56;95777.69;;;34.91;30.76
31595;BME280;18200;48.726;8.892;2023-07-24T15:38:56;95782.91;;;36.52;28.81
31595;BME280;18200;48.726;8.892;2023-07-24T15:42:57;95774.56;;;37.54;27.86
31595;BME280;18200;48.726;8.892;2023-07-24T15:46:57;95768.72;;;37.37;27.91
31595;BME280;18200;48.726;8.892;2023-07-24T15:50:58;95776.25;;;36.99;27.99
31595;BME280;18200;48.726;8.892;2023-07-24T15:54:58;95781.19;;;34.45;30.49
31595;BME280;18200;48.726;8.892;2023-07-24T15:58:59;95753.28;;;35.39;30.17
31595;BME280;18200;48.726;8.892;2023-07-24T16:03:00;95758.59;;;35.91;29.02
31595;BME280;18200;48.726;8.892;2023-07-24T16:07:00;95754.38;;;36.90;27.45
31595;BME280;18200;48.726;8.892;2023-07-24T16:11:01;95756.00;;;35.93;28.61
31595;BME280;18200;48.726;8.892;2023-07-24T16:15:02;95762.44;;;36.01;28.44
31595;BME280;18200;48.726;8.892;2023-07-24T16:19:16;95736.16;;;36.32;28.20
31595;BME280;18200;48.726;8.892;2023-07-24T16:23:17;95735.50;;;36.19;28.50
31595;BME280;18200;48.726;8.892;2023-07-24T16:27:17;95731.81;;;36.59;28.09
31595;BME280;18200;48.726;8.892;2023-07-24T16:31:18;95722.84;;;36.97;27.16
31595;BME280;18200;48.726;8.892;2023-07-24T16:35:18;95724.91;;;35.76;29.44
31595;BME280;18200;48.726;8.892;2023-07-24T16:39:18;95749.38;;;36.04;28.29
31595;BME280;18200;48.726;8.892;2023-07-24T16:43:19;95791.88;;;31.21;39.76
31595;BME280;18200;48.726;8.892;2023-07-24T16:47:19;95803.88;;;30.25;44.41
31595;BME280;18200;48.726;8.892;2023-07-24T16:51:20;95767.28;;;31.01;42.33
31595;BME280;18200;48.726;8.892;2023-07-24T16:55:20;95767.03;;;30.99;41.62
31595;BME280;18200;48.726;8.892;2023-07-24T16:59:20;95787.91;;;33.15;36.98
31595;BME280;18200;48.726;8.892;2023-07-24T17:03:21;95799.66;;;32.47;36.87
31595;BME280;18200;48.726;8.892;2023-07-24T17:07:22;95805.69;;;33.44;35.87
31595;BME280;18200;48.726;8.892;2023-07-24T17:11:22;95806.38;;;32.75;36.96
31595;BME280;18200;48.726;8.892;2023-07-24T17:15:22;95806.06;;;31.82;37.56
31595;BME280;18200;48.726;8.892;2023-07-24T17:19:24;95805.66;;;30.23;41.89
31595;BME280;18200;48.726;8.892;2023-07-24T17:23:25;95808.88;;;30.43;42.03
31595;BME280;18200;48.726;8.892;2023-07-24T17:27:25;95812.41;;;30.49;42.20
31595;BME280;18200;48.726;8.892;2023-07-24T17:31:25;95832.44;;;31.70;40.44
31595;BME280;18200;48.726;8.892;2023-07-24T17:35:26;95826.66;;;34.27;35.21
31595;BME280;18200;48.726;8.892;2023-07-24T17:39:26;95828.78;;;34.21;35.71
31595;BME280;18200;48.726;8.892;2023-07-24T17:43:27;95823.75;;;33.24;37.51
31595;BME280;18200;48.726;8.892;2023-07-24T17:47:27;95814.22;;;34.41;35.68
31595;BME280;18200;48.726;8.892;2023-07-24T17:51:27;95823.34;;;33.84;34.42
31595;BME280;18200;48.726;8.892;2023-07-24T17:55:28;95832.72;;;35.64;33.08
31595;BME280;18200;48.726;8.892;2023-07-24T17:59:28;95826.38;;;36.25;32.01
31595;BME280;18200;48.726;8.892;2023-07-24T18:03:28;95835.81;;;35.94;32.36
31595;BME280;18200;48.726;8.892;2023-07-24T18:07:29;95841.84;;;37.03;30.51
31595;BME280;18200;48.726;8.892;2023-07-24T18:11:29;95841.41;;;36.35;31.49
31595;BME280;18200;48.726;8.892;2023-07-24T18:15:29;95842.34;;;35.08;32.24
31595;BME280;18200;48.726;8.892;2023-07-24T18:19:30;95864.06;;;33.36;34.91
31595;BME280;18200;48.726;8.892;2023-07-24T18:23:30;95850.97;;;34.58;32.93
31595;BME280;18200;48.726;8.892;2023-07-24T18:27:31;95866.91;;;33.68;33.30
31595;BME280;18200;48.726;8.892;2023-07-24T18:31:33;95873.56;;;33.09;33.66
31595;BME280;18200;48.726;8.892;2023-07-24T18:35:33;95868.69;;;34.03;32.50
31595;BME280;18200;48.726;8.892;2023-07-24T18:39:33;95877.81;;;35.60;30.00
31595;BME280;18200;48.726;8.892;2023-07-24T18:43:34;95881.88;;;34.73;31.39
31595;BME280;18200;48.726;8.892;2023-07-24T18:47:34;95882.88;;;35.36;30.87
31595;BME280;18200;48.726;8.892;2023-07-24T18:51:35;95890.16;;;34.21;31.88
31595;BME280;18200;48.726;8.892;2023-07-24T18:55:35;95878.44;;;34.80;32.10
31595;BME280;18200;48.726;8.892;2023-07-24T18:59:35;95898.69;;;34.10;33.84
31595;BME280;18200;48.726;8.892;2023-07-24T19:03:36;95893.56;;;33.63;34.19
31595;BME280;18200;48.726;8.892;2023-07-24T19:07:36;95895.25;;;33.53;34.72
31595;BME280;18200;48.726;8.892;2023-07-24T19:11:37;95899.00;;;32.95;35.14
31595;BME280;18200;48.726;8.892;2023-07-24T19:15:37;95886.66;;;33.70;34.09
31595;BME280;18200;48.726;8.892;2023-07-24T19:19:38;95885.25;;;31.65;37.72
31595;BME280;18200;48.726;8.892;2023-07-24T19:23:38;95886.63;;;30.84;39.25
31595;BME280;18200;48.726;8.892;2023-07-24T19:27:38;95888.00;;;29.56;41.34
31595;BME280;18200;48.726;8.892;2023-07-24T19:31:39;95871.94;;;30.04;39.47
31595;BME280;18200;48.726;8.892;2023-07-24T19:35:39;95882.31;;;29.00;42.17
31595;BME280;18200;48.726;8.892;2023-07-24T19:39:39;95868.75;;;31.37;37.39
31595;BME280;18200;48.726;8.892;2023-07-24T19:43:40;95857.88;;;30.98;37.62
31595;BME280;18200;48.726;8.892;2023-07-24T19:53:10;95865.38;;;32.92;33.59
31595;BME280;18200;48.726;8.892;2023-07-24T19:57:10;95875.28;;;33.12;32.54
31595;BME280;18200;48.726;8.892;2023-07-24T20:01:11;95871.25;;;32.89;32.82
31595;BME280;18200;48.726;8.892;2023-07-24T20:05:11;95885.22;;;32.83;33.93
31595;BME280;18200;48.726;8.892;2023-07-24T20:09:12;95888.31;;;32.56;34.06
31595;BME280;18200;48.726;8.892;2023-07-24T20:13:12;95884.56;;;31.07;35.81
31595;BME280;18200;48.726;8.892;2023-07-24T20:17:12;95889.31;;;32.29;34.53
31595;BME280;18200;48.726;8.892;2023-07-24T20:21:13;95889.81;;;32.27;35.44
31595;BME280;18200;48.726;8.892;2023-07-24T20:25:13;95901.00;;;31.86;35.27
31595;BME280;18200;48.726;8.892;2023-07-24T20:29:13;95898.78;;;32.14;34.71
31595;BME280;18200;48.726;8.892;2023-07-24T20:33:15;95899.16;;;32.30;34.91
31595;BME280;18200;48.726;8.892;2023-07-24T20:37:15;95905.03;;;31.50;35.80
31595;BME280;18200;48.726;8.892;2023-07-24T20:41:15;95909.28;;;31.97;35.71
31595;BME280;18200;48.726;8.892;2023-07-24T20:45:16;95916.66;;;32.25;34.54
31595;BME280;18200;48.726;8.892;2023-07-24T20:49:16;95912.47;;;32.12;35.04
31595;BME280;18200;48.726;8.892;2023-07-24T20:53:17;95901.25;;;32.24;34.78
31595;BME280;18200;48.726;8.892;2023-07-24T20:57:17;95908.69;;;32.10;34.63
31595;BME280;18200;48.726;8.892;2023-07-24T21:01:18;95897.94;;;31.95;35.00
31595;BME280;18200;48.726;8.892;2023-07-24T21:05:18;95900.19;;;31.97;34.86
31595;BME280;18200;48.726;8.892;2023-07-24T21:09:18;95918.25;;;31.79;34.92
31595;BME280;18200;48.726;8.892;2023-07-24T21:13:20;95904.72;;;32.00;34.49
31595;BME280;18200;48.726;8.892;2023-07-24T21:17:20;95909.44;;;31.29;35.35
31595;BME280;18200;48.726;8.892;2023-07-24T21:21:21;95912.22;;;30.49;36.67
31595;BME280;18200;48.726;8.892;2023-07-24T21:25:22;95922.16;;;31.08;35.41